sensor_id;sensor_type;location;lat;lon;timestamp;P1;durP1;ratioP1;P2;durP2;ratioP2
3601;SDS011;1815;50.950;6.920;2023-06-10T00:00:39;5.13;;;4.73;;
3601;SDS011;1815;50.950;6.920;2023-06-10T00:03:09;6.47;;;5.80;;
3601;SDS011;1815;50.950;6.920;2023-06-10T00:05:35;6.23;;;5.60;;
3601;SDS011;1815;50.950;6.920;2023-06-10T00:08:04;5.80;;;5.00;;
3601;SDS011;1815;50.950;6.920;2023-06-10T00:10:37;5.77;;;5.27;;
3601;SDS011;1815;50.950;6.920;2023-06-10T00:13:04;5.50;;;5.00;;
3601;SDS011;1815;50.950;6.920;2023-06-10T00:15:33;7.37;;;4.90;;
3601;SDS011;1815;50.950;6.920;2023-06-10T00:18:00;6.23;;;5.63;;
3601;SDS011;1815;50.950;6.920;2023-06-10T00:20:27;5.73;;;5.23;;
3601;SDS011;1815;50.950;6.920;2023-06-10T00:22:53;5.33;;;4.83;;
3601;SDS011;1815;50.950;6.920;2023-06-10T00:25:18;5.57;;;5.07;;
3601;SDS011;1815;50.950;6.920;2023-06-10T00:27:44;6.13;;;5.40;;
3601;SDS011;1815;50.950;6.920;2023-06-10T00:30:10;6.00;;;5.40;;
3601;SDS011;1815;50.950;6.920;2023-06-10T00:32:36;7.67;;;5.97;;
3601;SDS011;1815;50.950;6.920;2023-06-10T00:35:03;7.77;;;5.43;;
3601;SDS011;1815;50.950;6.920;2023-06-10T00:37:30;4.70;;;4.30;;
3601;SDS011;1815;50.950;6.920;2023-06-10T00:39:57;5.50;;;5.00;;
3601;SDS011;1815;50.950;6.920;2023-06-10T00:42:24;5.83;;;5.33;;
3601;SDS011;1815;50.950;6.920;2023-06-10T00:44:50;5.10;;;4.70;;
3601;SDS011;1815;50.950;6.920;2023-06-10T00:47:16;5.80;;;5.30;;
3601;SDS011;1815;50.950;6.920;2023-06-10T00:49:42;6.00;;;5.20;;
3601;SDS011;1815;50.950;6.920;2023-06-10T00:52:09;5.40;;;4.90;;
3601;SDS011;1815;50.950;6.920;2023-06-10T00:54:36;6.33;;;4.87;;
3601;SDS011;1815;50.950;6.920;2023-06-10T00:57:03;6.13;;;5.53;;
3601;SDS011;1815;50.950;6.920;2023-06-10T00:59:30;6.20;;;5.00;;
3601;SDS011;1815;50.950;6.920;2023-06-10T01:01:57;6.27;;;5.33;;
3601;SDS011;1815;50.950;6.920;2023-06-10T01:04:23;5.93;;;5.40;;
3601;SDS011;1815;50.950;6.920;2023-06-10T01:14:43;6.40;;;5.80;;
3601;SDS011;1815;50.950;6.920;2023-06-10T01:17:15;6.07;;;5.67;;
3601;SDS011;1815;50.950;6.920;2023-06-10T01:19:43;6.23;;;5.60;;
3601;SDS011;1815;50.950;6.920;2023-06-10T01:22:09;5.90;;;5.40;;
3601;SDS011;1815;50.950;6.920;2023-06-10T01:24:36;8.40;;;6.43;;
3601;SDS011;1815;50.950;6.920;2023-06-10T01:27:05;6.03;;;5.07;;
3601;SDS011;1815;50.950;6.920;2023-06-10T01:29:41;6.90;;;6.30;;
3601;SDS011;1815;50.950;6.920;2023-06-10T01:32:17;6.27;;;5.77;;
3601;SDS011;1815;50.950;6.920;2023-06-10T01:34:46;5.73;;;5.23;;
3601;SDS011;1815;50.950;6.920;2023-06-10T01:37:15;6.30;;;5.80;;
3601;SDS011;1815;50.950;6.920;2023-06-10T01:39:45;6.33;;;5.83;;
3601;SDS011;1815;50.950;6.920;2023-06-10T01:42:12;7.20;;;6.20;;
3601;SDS011;1815;50.950;6.920;2023-06-10T01:44:41;6.70;;;6.10;;
3601;SDS011;1815;50.950;6.920;2023-06-10T01:47:07;7.10;;;6.40;;
3601;SDS011;1815;50.950;6.920;2023-06-10T01:49:34;7.20;;;6.53;;
3601;SDS011;1815;50.950;6.920;2023-06-10T01:51:59;6.40;;;5.80;;
3601;SDS011;1815;50.950;6.920;2023-06-10T01:54:26;6.90;;;6.23;;
3601;SDS011;1815;50.950;6.920;2023-06-10T01:56:52;7.90;;;5.80;;
3601;SDS011;1815;50.950;6.920;2023-06-10T01:59:17;7.00;;;6.30;;
3601;SDS011;1815;50.950;6.920;2023-06-10T02:01:43;6.87;;;6.20;;
3601;SDS011;1815;50.950;6.920;2023-06-10T02:04:09;8.37;;;6.40;;
3601;SDS011;1815;50.950;6.920;2023-06-10T02:06:35;6.50;;;5.90;;
3601;SDS011;1815;50.950;6.920;2023-06-10T02:09:02;7.90;;;6.30;;
3601;SDS011;1815;50.950;6.920;2023-06-10T02:11:28;6.80;;;6.10;;
3601;SDS011;1815;50.950;6.920;2023-06-10T02:13:54;6.90;;;6.37;;
3601;SDS011;1815;50.950;6.920;2023-06-10T02:16:20;6.97;;;6.27;;
3601;SDS011;1815;50.950;6.920;2023-06-10T02:18:46;6.40;;;5.90;;
3601;SDS011;1815;50.950;6.920;2023-06-10T02:21:13;7.40;;;5.70;;
3601;SDS011;1815;50.950;6.920;2023-06-10T02:23:39;6.53;;;5.93;;
3601;SDS011;1815;50.950;6.920;2023-06-10T02:26:05;7.23;;;6.43;;
3601;SDS011;1815;50.950;6.920;2023-06-10T02:28:31;6.23;;;5.73;;
3601;SDS011;1815;50.950;6.920;2023-06-10T02:30:58;6.80;;;6.20;;
3601;SDS011;1815;50.950;6.920;2023-06-10T02:33:27;7.70;;;6.60;;
3601;SDS011;1815;50.950;6.920;2023-06-10T02:35:53;6.77;;;6.07;;
3601;SDS011;1815;50.950;6.920;2023-06-10T02:38:19;7.20;;;6.53;;
3601;SDS011;1815;50.950;6.920;2023-06-10T02:40:45;7.33;;;6.63;;
3601;SDS011;1815;50.950;6.920;2023-06-10T02:43:11;8.00;;;6.50;;
3601;SDS011;1815;50.950;6.920;2023-06-10T02:45:37;7.53;;;6.73;;
3601;SDS011;1815;50.950;6.920;2023-06-10T02:48:04;9.23;;;8.33;;
3601;SDS011;1815;50.950;6.920;2023-06-10T02:50:31;8.70;;;7.90;;
3601;SDS011;1815;50.950;6.920;2023-06-10T02:53:18;7.63;;;6.93;;
3601;SDS011;1815;50.950;6.920;2023-06-10T02:55:49;7.87;;;7.17;;
3601;SDS011;1815;50.950;6.920;2023-06-10T02:58:17;7.20;;;6.47;;
3601;SDS011;1815;50.950;6.920;2023-06-10T03:00:43;7.50;;;6.90;;
3601;SDS011;1815;50.950;6.920;2023-06-10T03:03:10;8.40;;;7.33;;
3601;SDS011;1815;50.950;6.920;2023-06-10T03:05:45;7.93;;;6.63;;
3601;SDS011;1815;50.950;6.920;2023-06-10T03:08:11;7.50;;;6.80;;
3601;SDS011;1815;50.950;6.920;2023-06-10T03:10:39;8.77;;;8.03;;
3601;SDS011;1815;50.950;6.920;2023-06-10T03:13:06;8.07;;;6.83;;
3601;SDS011;1815;50.950;6.920;2023-06-10T03:15:32;7.67;;;7.07;;
3601;SDS011;1815;50.950;6.920;2023-06-10T03:18:04;8.73;;;7.50;;
3601;SDS011;1815;50.950;6.920;2023-06-10T03:20:32;8.70;;;7.90;;
3601;SDS011;1815;50.950;6.920;2023-06-10T03:23:04;7.10;;;6.60;;
3601;SDS011;1815;50.950;6.920;2023-06-10T03:25:32;8.57;;;7.27;;
3601;SDS011;1815;50.950;6.920;2023-06-10T03:27:58;9.10;;;8.20;;
3601;SDS011;1815;50.950;6.920;2023-06-10T03:30:24;9.20;;;7.67;;
3601;SDS011;1815;50.950;6.920;2023-06-10T03:32:50;10.90;;;8.33;;
3601;SDS011;1815;50.950;6.920;2023-06-10T03:35:18;8.57;;;7.83;;
3601;SDS011;1815;50.950;6.920;2023-06-10T03:37:43;9.33;;;8.43;;
3601;SDS011;1815;50.950;6.920;2023-06-10T03:40:09;10.10;;;8.70;;
3601;SDS011;1815;50.950;6.920;2023-06-10T03:42:39;9.83;;;8.93;;
3601;SDS011;1815;50.950;6.920;2023-06-10T03:45:06;8.57;;;7.83;;
3601;SDS011;1815;50.950;6.920;2023-06-10T03:47:34;8.43;;;7.63;;
3601;SDS011;1815;50.950;6.920;2023-06-10T03:50:04;8.83;;;8.03;;
3601;SDS011;1815;50.950;6.920;2023-06-10T03:52:31;9.50;;;8.10;;
3601;SDS011;1815;50.950;6.920;2023-06-10T03:54:57;8.87;;;8.17;;
3601;SDS011;1815;50.950;6.920;2023-06-10T03:57:23;8.83;;;8.03;;
3601;SDS011;1815;50.950;6.920;2023-06-10T03:59:49;8.47;;;7.67;;
3601;SDS011;1815;50.950;6.920;2023-06-10T04:02:14;8.67;;;7.87;;
3601;SDS011;1815;50.950;6.920;2023-06-10T04:04:42;8.90;;;8.10;;
3601;SDS011;1815;50.950;6.920;2023-06-10T04:07:08;8.97;;;8.13;;
3601;SDS011;1815;50.950;6.920;2023-06-10T04:09:34;8.20;;;7.40;;
3601;SDS011;1815;50.950;6.920;2023-06-10T04:12:01;8.50;;;7.80;;
3601;SDS011;1815;50.950;6.920;2023-06-10T04:14:28;9.23;;;8.20;;
3601;SDS011;1815;50.950;6.920;2023-06-10T04:16:54;8.73;;;7.83;;
3601;SDS011;1815;50.950;6.920;2023-06-10T04:19:19;8.47;;;7.77;;
3601;SDS011;1815;50.950;6.920;2023-06-10T04:21:46;8.07;;;7.37;;
3601;SDS011;1815;50.950;6.920;2023-06-10T04:24:12;8.20;;;7.40;;
3601;SDS011;1815;50.950;6.920;2023-06-10T04:26:38;8.40;;;7.57;;
3601;SDS011;1815;50.950;6.920;2023-06-10T04:29:04;8.60;;;7.80;;
3601;SDS011;1815;50.950;6.920;2023-06-10T04:31:30;9.93;;;8.77;;
3601;SDS011;1815;50.950;6.920;2023-06-10T04:33:57;8.20;;;7.40;;
3601;SDS011;1815;50.950;6.920;2023-06-10T04:36:24;10.07;;;7.80;;
3601;SDS011;1815;50.950;6.920;2023-06-10T04:38:50;7.80;;;7.20;;
3601;SDS011;1815;50.950;6.920;2023-06-10T04:41:17;8.20;;;7.40;;
3601;SDS011;1815;50.950;6.920;2023-06-10T04:43:43;8.40;;;7.50;;
3601;SDS011;1815;50.950;6.920;2023-06-10T04:46:09;7.40;;;6.80;;
3601;SDS011;1815;50.950;6.920;2023-06-10T04:48:36;8.50;;;7.03;;
3601;SDS011;1815;50.950;6.920;2023-06-10T04:51:03;8.10;;;7.40;;
3601;SDS011;1815;50.950;6.920;2023-06-10T04:53:29;9.87;;;7.67;;
3601;SDS011;1815;50.950;6.920;2023-06-10T04:55:56;7.50;;;6.80;;
3601;SDS011;1815;50.950;6.920;2023-06-10T04:58:22;8.90;;;8.00;;
3601;SDS011;1815;50.950;6.920;2023-06-10T05:00:48;8.20;;;7.47;;
3601;SDS011;1815;50.950;6.920;2023-06-10T05:03:14;7.70;;;7.00;;
3601;SDS011;1815;50.950;6.920;2023-06-10T05:05:40;8.07;;;7.37;;
3601;SDS011;1815;50.950;6.920;2023-06-10T05:08:06;7.70;;;7.00;;
3601;SDS011;1815;50.950;6.920;2023-06-10T05:10:31;8.00;;;6.90;;
3601;SDS011;1815;50.950;6.920;2023-06-10T05:12:59;6.27;;;5.70;;
3601;SDS011;1815;50.950;6.920;2023-06-10T05:15:25;6.63;;;6.13;;
3601;SDS011;1815;50.950;6.920;2023-06-10T05:17:50;7.30;;;6.60;;
3601;SDS011;1815;50.950;6.920;2023-06-10T05:20:16;7.27;;;6.67;;
3601;SDS011;1815;50.950;6.920;2023-06-10T05:22:43;7.07;;;6.40;;
3601;SDS011;1815;50.950;6.920;2023-06-10T05:25:09;6.13;;;5.60;;
3601;SDS011;1815;50.950;6.920;2023-06-10T05:27:35;5.90;;;5.40;;
3601;SDS011;1815;50.950;6.920;2023-06-10T05:30:02;5.30;;;4.80;;
3601;SDS011;1815;50.950;6.920;2023-06-10T05:32:28;5.50;;;5.03;;
3601;SDS011;1815;50.950;6.920;2023-06-10T05:34:54;6.90;;;5.57;;
3601;SDS011;1815;50.950;6.920;2023-06-10T05:37:20;8.50;;;6.00;;
3601;SDS011;1815;50.950;6.920;2023-06-10T05:39:46;7.27;;;5.53;;
3601;SDS011;1815;50.950;6.920;2023-06-10T05:42:11;7.00;;;5.70;;
3601;SDS011;1815;50.950;6.920;2023-06-10T05:44:37;5.67;;;5.17;;
3601;SDS011;1815;50.950;6.920;2023-06-10T05:47:03;6.93;;;5.50;;
3601;SDS011;1815;50.950;6.920;2023-06-10T05:49:29;6.00;;;5.40;;
3601;SDS011;1815;50.950;6.920;2023-06-10T05:51:54;5.40;;;4.90;;
3601;SDS011;1815;50.950;6.920;2023-06-10T05:54:22;15.23;;;4.70;;
3601;SDS011;1815;50.950;6.920;2023-06-10T05:56:48;5.10;;;4.60;;
3601;SDS011;1815;50.950;6.920;2023-06-10T05:59:14;5.30;;;4.63;;
3601;SDS011;1815;50.950;6.920;2023-06-10T06:01:39;5.20;;;4.70;;
3601;SDS011;1815;50.950;6.920;2023-06-10T06:04:05;4.63;;;4.23;;
3601;SDS011;1815;50.950;6.920;2023-06-10T06:06:31;4.83;;;3.83;;
3601;SDS011;1815;50.950;6.920;2023-06-10T06:08:56;4.40;;;4.00;;
3601;SDS011;1815;50.950;6.920;2023-06-10T06:11:26;4.13;;;3.40;;
3601;SDS011;1815;50.950;6.920;2023-06-10T06:13:52;5.93;;;4.00;;
3601;SDS011;1815;50.950;6.920;2023-06-10T06:16:17;4.23;;;3.83;;
3601;SDS011;1815;50.950;6.920;2023-06-10T06:18:43;3.80;;;3.40;;
3601;SDS011;1815;50.950;6.920;2023-06-10T06:21:09;3.33;;;2.63;;
3601;SDS011;1815;50.950;6.920;2023-06-10T06:23:35;3.27;;;2.97;;
3601;SDS011;1815;50.950;6.920;2023-06-10T06:26:00;4.03;;;3.30;;
3601;SDS011;1815;50.950;6.920;2023-06-10T06:28:27;6.57;;;3.50;;
3601;SDS011;1815;50.950;6.920;2023-06-10T06:30:55;4.07;;;2.63;;
3601;SDS011;1815;50.950;6.920;2023-06-10T06:33:21;3.47;;;3.17;;
3601;SDS011;1815;50.950;6.920;2023-06-10T06:35:46;3.30;;;3.00;;
3601;SDS011;1815;50.950;6.920;2023-06-10T06:38:12;4.80;;;2.90;;
3601;SDS011;1815;50.950;6.920;2023-06-10T06:40:38;4.20;;;3.03;;
3601;SDS011;1815;50.950;6.920;2023-06-10T06:43:03;3.63;;;3.00;;
3601;SDS011;1815;50.950;6.920;2023-06-10T06:45:38;4.60;;;3.40;;
3601;SDS011;1815;50.950;6.920;2023-06-10T06:48:04;4.37;;;2.90;;
3601;SDS011;1815;50.950;6.920;2023-06-10T06:50:30;4.03;;;3.20;;
3601;SDS011;1815;50.950;6.920;2023-06-10T06:52:56;3.53;;;2.93;;
3601;SDS011;1815;50.950;6.920;2023-06-10T06:55:21;2.83;;;2.57;;
3601;SDS011;1815;50.950;6.920;2023-06-10T06:57:47;3.57;;;2.33;;
3601;SDS011;1815;50.950;6.920;2023-06-10T07:00:13;3.90;;;2.97;;
3601;SDS011;1815;50.950;6.920;2023-06-10T07:02:39;3.10;;;2.80;;
3601;SDS011;1815;50.950;6.920;2023-06-10T07:05:06;5.37;;;2.70;;
3601;SDS011;1815;50.950;6.920;2023-06-10T07:07:34;3.13;;;2.83;;
3601;SDS011;1815;50.950;6.920;2023-06-10T07:10:00;3.23;;;2.93;;
3601;SDS011;1815;50.950;6.920;2023-06-10T07:12:26;3.77;;;2.60;;
3601;SDS011;1815;50.950;6.920;2023-06-10T07:14:51;4.87;;;3.50;;
3601;SDS011;1815;50.950;6.920;2023-06-10T07:17:17;3.80;;;2.77;;
3601;SDS011;1815;50.950;6.920;2023-06-10T07:19:43;3.80;;;2.43;;
3601;SDS011;1815;50.950;6.920;2023-06-10T07:22:10;3.60;;;3.17;;
3601;SDS011;1815;50.950;6.920;2023-06-10T07:24:35;5.53;;;3.60;;
3601;SDS011;1815;50.950;6.920;2023-06-10T07:27:07;3.33;;;3.03;;
3601;SDS011;1815;50.950;6.920;2023-06-10T07:29:34;3.23;;;2.83;;
3601;SDS011;1815;50.950;6.920;2023-06-10T07:32:01;6.43;;;3.30;;
3601;SDS011;1815;50.950;6.920;2023-06-10T07:34:28;3.03;;;2.73;;
3601;SDS011;1815;50.950;6.920;2023-06-10T07:36:54;4.30;;;3.10;;
3601;SDS011;1815;50.950;6.920;2023-06-10T07:39:20;3.20;;;2.50;;
3601;SDS011;1815;50.950;6.920;2023-06-10T07:41:46;3.77;;;2.90;;
3601;SDS011;1815;50.950;6.920;2023-06-10T07:44:11;3.13;;;2.90;;
3601;SDS011;1815;50.950;6.920;2023-06-10T07:46:37;4.30;;;3.47;;
3601;SDS011;1815;50.950;6.920;2023-06-10T07:49:03;3.67;;;2.70;;
3601;SDS011;1815;50.950;6.920;2023-06-10T07:51:29;3.30;;;2.73;;
3601;SDS011;1815;50.950;6.920;2023-06-10T07:53:54;3.90;;;2.43;;
3601;SDS011;1815;50.950;6.920;2023-06-10T07:56:20;3.43;;;2.50;;
3601;SDS011;1815;50.950;6.920;2023-06-10T07:58:46;3.20;;;2.90;;
3601;SDS011;1815;50.950;6.920;2023-06-10T08:01:12;3.10;;;2.80;;
3601;SDS011;1815;50.950;6.920;2023-06-10T08:03:38;2.90;;;2.60;;
3601;SDS011;1815;50.950;6.920;2023-06-10T08:06:03;5.90;;;2.60;;
3601;SDS011;1815;50.950;6.920;2023-06-10T08:08:30;2.87;;;2.57;;
3601;SDS011;1815;50.950;6.920;2023-06-10T08:10:56;3.37;;;2.97;;
3601;SDS011;1815;50.950;6.920;2023-06-10T08:13:22;2.40;;;2.17;;
3601;SDS011;1815;50.950;6.920;2023-06-10T08:15:48;4.37;;;3.13;;
3601;SDS011;1815;50.950;6.920;2023-06-10T08:18:15;3.47;;;3.17;;
3601;SDS011;1815;50.950;6.920;2023-06-10T08:20:41;3.43;;;3.13;;
3601;SDS011;1815;50.950;6.920;2023-06-10T08:23:07;4.10;;;2.70;;
3601;SDS011;1815;50.950;6.920;2023-06-10T08:25:33;3.63;;;2.70;;
3601;SDS011;1815;50.950;6.920;2023-06-10T08:27:58;3.47;;;2.93;;
3601;SDS011;1815;50.950;6.920;2023-06-10T08:30:24;4.60;;;2.97;;
3601;SDS011;1815;50.950;6.920;2023-06-10T08:32:49;3.93;;;3.53;;
3601;SDS011;1815;50.950;6.920;2023-06-10T08:35:17;3.10;;;2.90;;
3601;SDS011;1815;50.950;6.920;2023-06-10T08:37:43;3.07;;;2.77;;
3601;SDS011;1815;50.950;6.920;2023-06-10T08:40:09;4.33;;;3.43;;
3601;SDS011;1815;50.950;6.920;2023-06-10T08:43:10;3.83;;;3.10;;
3601;SDS011;1815;50.950;6.920;2023-06-10T08:45:34;4.00;;;3.40;;
3601;SDS011;1815;50.950;6.920;2023-06-10T08:48:04;3.30;;;3.00;;
3601;SDS011;1815;50.950;6.920;2023-06-10T08:50:35;4.03;;;3.20;;
3601;SDS011;1815;50.950;6.920;2023-06-10T08:53:02;3.10;;;2.80;;
3601;SDS011;1815;50.950;6.920;2023-06-10T08:55:31;4.27;;;3.00;;
3601;SDS011;1815;50.950;6.920;2023-06-10T08:58:00;3.43;;;3.13;;
3601;SDS011;1815;50.950;6.920;2023-06-10T09:00:27;3.23;;;2.63;;
3601;SDS011;1815;50.950;6.920;2023-06-10T09:02:57;4.77;;;3.73;;
3601;SDS011;1815;50.950;6.920;2023-06-10T09:05:23;3.80;;;3.10;;
3601;SDS011;1815;50.950;6.920;2023-06-10T09:07:51;5.57;;;3.30;;
3601;SDS011;1815;50.950;6.920;2023-06-10T09:10:17;3.37;;;2.87;;
3601;SDS011;1815;50.950;6.920;2023-06-10T09:12:43;3.33;;;3.10;;
3601;SDS011;1815;50.950;6.920;2023-06-10T09:15:09;3.40;;;3.03;;
3601;SDS011;1815;50.950;6.920;2023-06-10T09:17:37;3.30;;;3.00;;
3601;SDS011;1815;50.950;6.920;2023-06-10T09:20:05;3.20;;;2.90;;
3601;SDS011;1815;50.950;6.920;2023-06-10T09:22:32;2.90;;;2.70;;
3601;SDS011;1815;50.950;6.920;2023-06-10T09:25:16;3.60;;;3.30;;
3601;SDS011;1815;50.950;6.920;2023-06-10T09:27:47;3.50;;;2.90;;
3601;SDS011;1815;50.950;6.920;2023-06-10T09:30:29;4.90;;;3.43;;
3601;SDS011;1815;50.950;6.920;2023-06-10T09:33:03;3.80;;;3.50;;
3601;SDS011;1815;50.950;6.920;2023-06-10T09:35:35;3.57;;;3.13;;
3601;SDS011;1815;50.950;6.920;2023-06-10T09:38:01;3.43;;;3.13;;
3601;SDS011;1815;50.950;6.920;2023-06-10T09:40:27;4.20;;;3.90;;
3601;SDS011;1815;50.950;6.920;2023-06-10T09:42:56;3.90;;;3.43;;
3601;SDS011;1815;50.950;6.920;2023-06-10T09:45:25;3.97;;;2.67;;
3601;SDS011;1815;50.950;6.920;2023-06-10T09:47:59;3.57;;;3.27;;
3601;SDS011;1815;50.950;6.920;2023-06-10T09:50:26;4.03;;;3.63;;
3601;SDS011;1815;50.950;6.920;2023-06-10T09:52:52;4.60;;;3.70;;
3601;SDS011;1815;50.950;6.920;2023-06-10T09:55:18;3.37;;;3.00;;
3601;SDS011;1815;50.950;6.920;2023-06-10T09:57:43;4.27;;;3.97;;
3601;SDS011;1815;50.950;6.920;2023-06-10T10:00:13;5.90;;;3.10;;
3601;SDS011;1815;50.950;6.920;2023-06-10T10:02:47;3.60;;;3.30;;
3601;SDS011;1815;50.950;6.920;2023-06-10T10:05:15;3.23;;;2.90;;
3601;SDS011;1815;50.950;6.920;2023-06-10T10:07:42;4.73;;;3.90;;
3601;SDS011;1815;50.950;6.920;2023-06-10T10:10:09;3.93;;;3.63;;
3601;SDS011;1815;50.950;6.920;2023-06-10T10:12:35;3.90;;;3.10;;
3601;SDS011;1815;50.950;6.920;2023-06-10T10:15:03;5.10;;;3.27;;
3601;SDS011;1815;50.950;6.920;2023-06-10T10:17:34;5.73;;;3.60;;
3601;SDS011;1815;50.950;6.920;2023-06-10T10:20:04;4.10;;;3.40;;
3601;SDS011;1815;50.950;6.920;2023-06-10T10:22:37;3.70;;;3.40;;
3601;SDS011;1815;50.950;6.920;2023-06-10T10:25:08;4.33;;;3.07;;
3601;SDS011;1815;50.950;6.920;2023-06-10T10:30:07;3.47;;;3.03;;
3601;SDS011;1815;50.950;6.920;2023-06-10T10:35:34;5.63;;;2.83;;
3601;SDS011;1815;50.950;6.920;2023-06-10T10:38:01;4.50;;;3.70;;
3601;SDS011;1815;50.950;6.920;2023-06-10T10:40:28;3.70;;;3.03;;
3601;SDS011;1815;50.950;6.920;2023-06-10T10:42:55;4.80;;;3.03;;
3601;SDS011;1815;50.950;6.920;2023-06-10T10:45:23;3.70;;;3.33;;
3601;SDS011;1815;50.950;6.920;2023-06-10T10:47:52;3.00;;;2.70;;
3601;SDS011;1815;50.950;6.920;2023-06-10T10:50:20;2.80;;;2.50;;
3601;SDS011;1815;50.950;6.920;2023-06-10T10:52:58;3.77;;;3.40;;
3601;SDS011;1815;50.950;6.920;2023-06-10T10:55:26;7.03;;;3.07;;
3601;SDS011;1815;50.950;6.920;2023-06-10T10:58:06;5.70;;;3.67;;
3601;SDS011;1815;50.950;6.920;2023-06-10T11:03:14;3.17;;;2.90;;
3601;SDS011;1815;50.950;6.920;2023-06-10T11:05:44;4.00;;;3.50;;
3601;SDS011;1815;50.950;6.920;2023-06-10T11:08:14;3.43;;;3.03;;
3601;SDS011;1815;50.950;6.920;2023-06-10T11:10:52;5.37;;;3.50;;
3601;SDS011;1815;50.950;6.920;2023-06-10T11:13:19;3.00;;;2.80;;
3601;SDS011;1815;50.950;6.920;2023-06-10T11:15:50;3.60;;;3.30;;
3601;SDS011;1815;50.950;6.920;2023-06-10T11:18:25;7.23;;;3.43;;
3601;SDS011;1815;50.950;6.920;2023-06-10T11:28:39;3.93;;;3.27;;
3601;SDS011;1815;50.950;6.920;2023-06-10T11:31:05;3.57;;;3.27;;
3601;SDS011;1815;50.950;6.920;2023-06-10T11:33:31;3.87;;;3.53;;
3601;SDS011;1815;50.950;6.920;2023-06-10T11:35:58;4.00;;;3.30;;
3601;SDS011;1815;50.950;6.920;2023-06-10T11:38:24;4.20;;;3.90;;
3601;SDS011;1815;50.950;6.920;2023-06-10T11:40:50;3.63;;;3.17;;
3601;SDS011;1815;50.950;6.920;2023-06-10T11:43:16;4.00;;;3.47;;
3601;SDS011;1815;50.950;6.920;2023-06-10T11:45:43;3.73;;;3.40;;
3601;SDS011;1815;50.950;6.920;2023-06-10T11:48:09;5.27;;;3.77;;
3601;SDS011;1815;50.950;6.920;2023-06-10T11:50:35;4.50;;;3.10;;
3601;SDS011;1815;50.950;6.920;2023-06-10T11:53:02;5.10;;;3.40;;
3601;SDS011;1815;50.950;6.920;2023-06-10T11:55:44;5.17;;;2.87;;
3601;SDS011;1815;50.950;6.920;2023-06-10T11:58:15;4.23;;;3.47;;
3601;SDS011;1815;50.950;6.920;2023-06-10T12:00:49;3.67;;;3.37;;
3601;SDS011;1815;50.950;6.920;2023-06-10T12:03:18;3.10;;;2.80;;
3601;SDS011;1815;50.950;6.920;2023-06-10T12:08:24;3.83;;;3.20;;
3601;SDS011;1815;50.950;6.920;2023-06-10T12:10:50;3.73;;;3.37;;
3601;SDS011;1815;50.950;6.920;2023-06-10T12:13:16;4.53;;;2.87;;
3601;SDS011;1815;50.950;6.920;2023-06-10T12:15:43;3.00;;;2.80;;
3601;SDS011;1815;50.950;6.920;2023-06-10T12:18:22;5.17;;;2.70;;
3601;SDS011;1815;50.950;6.920;2023-06-10T12:20:49;3.37;;;3.07;;
3601;SDS011;1815;50.950;6.920;2023-06-10T12:23:16;3.70;;;3.10;;
3601;SDS011;1815;50.950;6.920;2023-06-10T12:25:52;4.17;;;3.00;;
3601;SDS011;1815;50.950;6.920;2023-06-10T12:28:22;3.40;;;3.10;;
3601;SDS011;1815;50.950;6.920;2023-06-10T12:30:49;4.80;;;3.57;;
3601;SDS011;1815;50.950;6.920;2023-06-10T12:33:16;3.30;;;3.00;;
3601;SDS011;1815;50.950;6.920;2023-06-10T12:35:49;3.70;;;3.00;;
3601;SDS011;1815;50.950;6.920;2023-06-10T12:38:23;4.17;;;2.90;;
3601;SDS011;1815;50.950;6.920;2023-06-10T12:40:52;3.70;;;2.93;;
3601;SDS011;1815;50.950;6.920;2023-06-10T12:43:19;5.03;;;3.10;;
3601;SDS011;1815;50.950;6.920;2023-06-10T12:45:46;7.73;;;3.30;;
3601;SDS011;1815;50.950;6.920;2023-06-10T12:48:16;3.13;;;2.70;;
3601;SDS011;1815;50.950;6.920;2023-06-10T12:50:42;4.07;;;3.17;;
3601;SDS011;1815;50.950;6.920;2023-06-10T12:53:09;5.60;;;2.97;;
3601;SDS011;1815;50.950;6.920;2023-06-10T12:55:36;3.87;;;2.77;;
3601;SDS011;1815;50.950;6.920;2023-06-10T12:58:02;4.40;;;3.00;;
3601;SDS011;1815;50.950;6.920;2023-06-10T13:00:28;5.20;;;3.83;;
3601;SDS011;1815;50.950;6.920;2023-06-10T13:02:59;4.17;;;3.10;;
3601;SDS011;1815;50.950;6.920;2023-06-10T13:05:27;4.73;;;3.20;;
3601;SDS011;1815;50.950;6.920;2023-06-10T13:07:53;4.60;;;3.53;;
3601;SDS011;1815;50.950;6.920;2023-06-10T13:10:20;5.50;;;3.47;;
3601;SDS011;1815;50.950;6.920;2023-06-10T13:12:46;6.53;;;2.73;;
3601;SDS011;1815;50.950;6.920;2023-06-10T13:15:12;3.33;;;3.00;;
3601;SDS011;1815;50.950;6.920;2023-06-10T13:17:39;3.60;;;2.90;;
3601;SDS011;1815;50.950;6.920;2023-06-10T13:20:06;4.27;;;2.77;;
3601;SDS011;1815;50.950;6.920;2023-06-10T13:22:33;2.30;;;2.10;;
3601;SDS011;1815;50.950;6.920;2023-06-10T13:25:04;3.13;;;2.27;;
3601;SDS011;1815;50.950;6.920;2023-06-10T13:27:34;7.00;;;3.10;;
3601;SDS011;1815;50.950;6.920;2023-06-10T13:30:05;3.80;;;2.93;;
3601;SDS011;1815;50.950;6.920;2023-06-10T13:32:31;3.10;;;2.80;;
3601;SDS011;1815;50.950;6.920;2023-06-10T13:34:57;3.33;;;2.47;;
3601;SDS011;1815;50.950;6.920;2023-06-10T13:37:23;4.43;;;2.60;;
3601;SDS011;1815;50.950;6.920;2023-06-10T13:39:49;3.77;;;2.40;;
3601;SDS011;1815;50.950;6.920;2023-06-10T13:42:16;3.20;;;2.90;;
3601;SDS011;1815;50.950;6.920;2023-06-10T13:44:45;4.20;;;3.00;;
3601;SDS011;1815;50.950;6.920;2023-06-10T13:47:12;4.57;;;3.60;;
3601;SDS011;1815;50.950;6.920;2023-06-10T13:49:38;3.27;;;2.97;;
3601;SDS011;1815;50.950;6.920;2023-06-10T13:52:05;4.37;;;2.17;;
3601;SDS011;1815;50.950;6.920;2023-06-10T13:54:31;3.17;;;2.70;;
3601;SDS011;1815;50.950;6.920;2023-06-10T13:56:57;3.73;;;3.30;;
3601;SDS011;1815;50.950;6.920;2023-06-10T13:59:22;3.07;;;2.77;;
3601;SDS011;1815;50.950;6.920;2023-06-10T14:01:48;3.40;;;3.10;;
3601;SDS011;1815;50.950;6.920;2023-06-10T14:04:14;3.60;;;2.80;;
3601;SDS011;1815;50.950;6.920;2023-06-10T14:06:40;6.17;;;3.03;;
3601;SDS011;1815;50.950;6.920;2023-06-10T14:09:05;2.80;;;2.50;;
3601;SDS011;1815;50.950;6.920;2023-06-10T14:11:31;3.67;;;2.53;;
3601;SDS011;1815;50.950;6.920;2023-06-10T14:13:57;2.80;;;2.50;;
3601;SDS011;1815;50.950;6.920;2023-06-10T14:16:23;3.40;;;2.93;;
3601;SDS011;1815;50.950;6.920;2023-06-10T14:18:52;3.40;;;2.90;;
3601;SDS011;1815;50.950;6.920;2023-06-10T14:21:17;3.00;;;2.60;;
3601;SDS011;1815;50.950;6.920;2023-06-10T14:23:44;7.20;;;2.70;;
3601;SDS011;1815;50.950;6.920;2023-06-10T14:26:10;3.50;;;2.53;;
3601;SDS011;1815;50.950;6.920;2023-06-10T14:28:36;3.83;;;2.97;;
3601;SDS011;1815;50.950;6.920;2023-06-10T14:31:02;4.07;;;2.83;;
3601;SDS011;1815;50.950;6.920;2023-06-10T14:33:28;3.40;;;2.80;;
3601;SDS011;1815;50.950;6.920;2023-06-10T14:35:53;3.33;;;2.97;;
3601;SDS011;1815;50.950;6.920;2023-06-10T14:38:19;3.40;;;3.10;;
3601;SDS011;1815;50.950;6.920;2023-06-10T14:40:45;5.17;;;3.40;;
3601;SDS011;1815;50.950;6.920;2023-06-10T14:43:11;4.57;;;3.57;;
3601;SDS011;1815;50.950;6.920;2023-06-10T14:45:37;4.00;;;3.50;;
3601;SDS011;1815;50.950;6.920;2023-06-10T14:48:07;5.30;;;3.80;;
3601;SDS011;1815;50.950;6.920;2023-06-10T14:50:36;5.20;;;4.10;;
3601;SDS011;1815;50.950;6.920;2023-06-10T14:53:03;3.77;;;3.43;;
3601;SDS011;1815;50.950;6.920;2023-06-10T14:55:29;4.70;;;3.20;;
3601;SDS011;1815;50.950;6.920;2023-06-10T14:57:54;3.63;;;2.53;;
3601;SDS011;1815;50.950;6.920;2023-06-10T15:00:22;18.70;;;3.40;;
3601;SDS011;1815;50.950;6.920;2023-06-10T15:02:49;4.60;;;3.27;;
3601;SDS011;1815;50.950;6.920;2023-06-10T15:05:15;3.67;;;2.33;;
3601;SDS011;1815;50.950;6.920;2023-06-10T15:07:42;3.47;;;3.03;;
3601;SDS011;1815;50.950;6.920;2023-06-10T15:10:08;3.80;;;2.77;;
3601;SDS011;1815;50.950;6.920;2023-06-10T15:12:35;3.27;;;2.47;;
3601;SDS011;1815;50.950;6.920;2023-06-10T15:15:01;3.20;;;2.90;;
3601;SDS011;1815;50.950;6.920;2023-06-10T15:17:27;3.93;;;2.60;;
3601;SDS011;1815;50.950;6.920;2023-06-10T15:19:54;4.83;;;3.33;;
3601;SDS011;1815;50.950;6.920;2023-06-10T15:22:19;3.70;;;3.10;;
3601;SDS011;1815;50.950;6.920;2023-06-10T15:24:45;3.80;;;2.70;;
3601;SDS011;1815;50.950;6.920;2023-06-10T15:27:11;2.87;;;2.53;;
3601;SDS011;1815;50.950;6.920;2023-06-10T15:29:37;4.50;;;3.10;;
3601;SDS011;1815;50.950;6.920;2023-06-10T15:32:02;5.07;;;2.80;;
3601;SDS011;1815;50.950;6.920;2023-06-10T15:34:28;6.33;;;3.23;;
3601;SDS011;1815;50.950;6.920;2023-06-10T15:36:54;3.57;;;3.27;;
3601;SDS011;1815;50.950;6.920;2023-06-10T15:39:20;3.00;;;2.70;;
3601;SDS011;1815;50.950;6.920;2023-06-10T15:41:45;4.40;;;2.90;;